createdAt,value
2019-06-10T00:00:32.284Z,20.80
2019-06-10T00:03:02.842Z,20.80
2019-06-10T00:05:32.914Z,20.80
2019-06-10T00:08:03.910Z,20.80
2019-06-10T00:10:33.254Z,20.80
2019-06-10T00:13:03.719Z,20.80
2019-06-10T00:15:33.512Z,20.80
2019-06-10T00:18:26.929Z,20.80
2019-06-10T00:20:33.684Z,20.70
2019-06-10T00:23:05.209Z,20.70
2019-06-10T00:25:34.098Z,20.70
2019-06-10T00:28:05.684Z,20.70
2019-06-10T00:30:34.554Z,20.70
2019-06-10T00:33:06.070Z,20.70
2019-06-10T00:35:35.346Z,20.70
2019-06-10T00:38:07.063Z,20.70
2019-06-10T00:40:35.740Z,20.70
2019-06-10T00:43:06.604Z,20.70
2019-06-10T00:45:35.819Z,20.70
2019-06-10T00:48:15.750Z,20.70
2019-06-10T00:50:36.273Z,20.70
2019-06-10T00:53:06.254Z,20.70
2019-06-10T00:55:36.822Z,20.70
2019-06-10T00:58:07.483Z,20.80
2019-06-10T01:00:41.185Z,20.80
2019-06-10T01:03:13.455Z,20.70
2019-06-10T01:05:42.478Z,20.70
2019-06-10T01:08:13.897Z,20.70
2019-06-10T01:10:43.736Z,20.70
2019-06-10T01:13:15.308Z,20.70
2019-06-10T01:15:44.207Z,20.70
2019-06-10T01:18:32.055Z,20.70
2019-06-10T01:20:45.062Z,20.60
2019-06-10T01:23:15.715Z,20.60
2019-06-10T01:25:45.304Z,20.60
2019-06-10T01:28:16.833Z,20.60
2019-06-10T01:30:45.809Z,20.60
2019-06-10T01:33:16.394Z,20.60
2019-06-10T01:35:46.353Z,20.60
2019-06-10T01:38:16.304Z,20.70
2019-06-10T01:40:45.818Z,20.70
2019-06-10T01:43:17.279Z,20.60
2019-06-10T01:45:46.095Z,20.60
2019-06-10T01:48:16.393Z,20.60
2019-06-10T01:50:46.194Z,20.60
2019-06-10T01:53:17.178Z,20.60
2019-06-10T01:55:46.741Z,20.60
2019-06-10T01:58:18.107Z,20.50
2019-06-10T02:01:15.637Z,20.50
2019-06-10T02:03:43.674Z,20.60
2019-06-10T02:06:17.663Z,20.50
2019-06-10T02:08:44.130Z,20.50
2019-06-10T02:11:15.546Z,20.50
2019-06-10T02:13:44.601Z,20.50
2019-06-10T02:16:16.155Z,20.50
2019-06-10T02:18:59.458Z,20.40
2019-06-10T02:21:17.927Z,20.40
2019-06-10T02:23:47.386Z,20.40
2019-06-10T02:26:17.961Z,20.40
2019-06-10T02:28:47.568Z,20.40
2019-06-10T02:31:19.938Z,20.40
2019-06-10T02:33:52.059Z,20.30
2019-06-10T02:36:25.593Z,20.40
2019-06-10T02:38:53.726Z,20.30
2019-06-10T02:41:31.082Z,20.40
2019-06-10T02:43:53.453Z,20.30
2019-06-10T02:46:30.673Z,20.30
2019-06-10T02:48:54.616Z,20.30
2019-06-10T02:51:30.252Z,20.30
2019-06-10T02:53:55.268Z,20.30
2019-06-10T02:56:30.052Z,20.30
2019-06-10T02:58:57.842Z,20.30
2019-06-10T03:01:32.262Z,20.30
2019-06-10T03:03:58.704Z,20.20
2019-06-10T03:06:34.824Z,20.10
2019-06-10T03:08:59.328Z,20.10
2019-06-10T03:11:33.503Z,20.00
2019-06-10T03:13:59.798Z,20.00
2019-06-10T03:16:43.554Z,20.00
2019-06-10T03:19:13.343Z,20.00
2019-06-10T03:21:42.853Z,20.00
2019-06-10T03:24:13.158Z,20.00
2019-06-10T03:26:42.974Z,20.00
2019-06-10T03:29:12.932Z,20.00
2019-06-10T03:31:47.785Z,19.90
2019-06-10T03:34:14.772Z,20.00
2019-06-10T03:36:44.641Z,20.00
2019-06-10T03:39:13.987Z,19.90
2019-06-10T03:41:43.441Z,19.90
2019-06-10T03:44:13.314Z,19.90
2019-06-10T03:46:43.202Z,19.80
2019-06-10T03:49:12.630Z,19.80
2019-06-10T03:51:44.274Z,19.80
2019-06-10T03:54:13.603Z,19.80
2019-06-10T03:56:43.179Z,19.70
2019-06-10T03:59:15.298Z,19.60
2019-06-10T04:01:44.630Z,19.50
2019-06-10T04:04:13.906Z,19.30
2019-06-10T04:06:44.155Z,19.20
2019-06-10T04:09:14.820Z,19.00
2019-06-10T04:11:44.128Z,18.90
2019-06-10T04:14:13.501Z,18.80
2019-06-10T04:16:43.314Z,18.70
2019-06-10T04:19:13.245Z,18.70
2019-06-10T04:21:44.399Z,18.60
2019-06-10T04:24:13.665Z,18.60
2019-06-10T04:26:43.530Z,18.60
2019-06-10T04:29:13.124Z,18.50
2019-06-10T04:31:42.739Z,18.60
2019-06-10T04:34:12.432Z,18.50
2019-06-10T04:36:42.299Z,18.50
2019-06-10T04:39:12.508Z,18.50
2019-06-10T04:41:42.629Z,18.50
2019-06-10T04:44:13.202Z,18.30
2019-06-10T04:46:42.933Z,18.30
2019-06-10T04:49:13.207Z,18.30
2019-06-10T04:51:43.379Z,18.40
2019-06-10T04:54:13.441Z,18.30
2019-06-10T04:56:43.139Z,18.30
2019-06-10T04:59:12.755Z,18.30
2019-06-10T05:01:42.542Z,18.30
2019-06-10T05:04:12.643Z,18.30
2019-06-10T05:06:42.304Z,18.30
2019-06-10T05:09:12.440Z,18.30
2019-06-10T05:11:43.038Z,18.30
2019-06-10T05:14:13.263Z,18.30
2019-06-10T05:16:43.870Z,18.30
2019-06-10T05:19:13.159Z,18.30
2019-06-10T05:21:42.602Z,18.30
2019-06-10T05:24:12.582Z,18.30
2019-06-10T05:26:42.555Z,18.20
2019-06-10T05:29:12.297Z,18.30
2019-06-10T05:31:43.573Z,18.30
2019-06-10T05:34:13.093Z,18.30
2019-06-10T05:36:43.645Z,18.20
2019-06-10T05:39:13.139Z,18.20
2019-06-10T05:41:43.490Z,18.20
2019-06-10T05:44:13.401Z,18.30
2019-06-10T05:46:43.479Z,18.30
2019-06-10T05:49:13.088Z,18.40
2019-06-10T05:51:42.529Z,18.30
2019-06-10T05:54:12.773Z,18.30
2019-06-10T05:56:43.290Z,18.30
2019-06-10T05:59:13.252Z,18.30
2019-06-10T06:01:43.222Z,18.30
2019-06-10T06:04:12.771Z,18.40
2019-06-10T06:06:44.989Z,18.40
2019-06-10T06:09:13.167Z,18.40
2019-06-10T06:11:43.102Z,18.50
2019-06-10T06:14:13.258Z,18.50
2019-06-10T06:16:43.382Z,18.50
2019-06-10T06:19:12.810Z,18.60
2019-06-10T06:21:47.343Z,18.50
2019-06-10T06:24:13.097Z,18.50
2019-06-10T06:26:43.172Z,18.60
2019-06-10T06:29:13.109Z,18.70
2019-06-10T06:31:43.102Z,18.70
2019-06-10T06:34:13.825Z,18.80
2019-06-10T06:36:42.467Z,18.90
2019-06-10T06:39:12.889Z,18.90
2019-06-10T06:41:42.899Z,18.90
2019-06-10T06:44:12.973Z,19.00
2019-06-10T06:46:43.044Z,19.00
2019-06-10T06:49:12.965Z,19.10
2019-06-10T06:51:54.661Z,19.10
2019-06-10T06:54:15.519Z,19.20
2019-06-10T06:56:44.768Z,19.30
2019-06-10T06:59:14.167Z,19.30
2019-06-10T07:01:44.473Z,19.40
2019-06-10T07:04:13.793Z,19.50
2019-06-10T07:06:43.530Z,19.50
2019-06-10T07:09:13.434Z,19.60
2019-06-10T07:11:45.107Z,19.70
2019-06-10T07:14:14.787Z,19.70
2019-06-10T07:16:46.401Z,19.80
2019-06-10T07:19:14.855Z,19.80
2019-06-10T07:22:02.381Z,19.90
2019-06-10T07:24:14.851Z,19.90
2019-06-10T07:26:51.025Z,20.00
2019-06-10T07:29:14.997Z,20.00
2019-06-10T07:31:46.036Z,20.10
2019-06-10T07:34:15.063Z,20.10
2019-06-10T07:36:45.451Z,20.20
2019-06-10T07:39:14.784Z,20.20
2019-06-10T07:41:47.495Z,20.20
2019-06-10T07:44:14.976Z,20.30
2019-06-10T07:46:45.629Z,20.30
2019-06-10T07:49:14.867Z,20.40
2019-06-10T07:51:46.360Z,20.40
2019-06-10T07:54:15.156Z,20.50
2019-06-10T07:56:50.392Z,20.50
2019-06-10T07:59:15.480Z,20.60
2019-06-10T08:01:50.936Z,20.60
2019-06-10T08:04:15.429Z,20.70
2019-06-10T08:06:45.823Z,20.70
2019-06-10T08:09:15.148Z,20.70
2019-06-10T08:11:46.855Z,20.70
2019-06-10T08:14:15.147Z,20.80
2019-06-10T08:16:46.553Z,20.90
2019-06-10T08:19:30.176Z,20.90
2019-06-10T08:21:49.204Z,21.00
2019-06-10T08:24:17.463Z,21.00
2019-06-10T08:26:47.677Z,21.10
2019-06-10T08:29:17.050Z,21.10
2019-06-10T08:31:49.400Z,21.10
2019-06-10T08:34:17.046Z,21.20
2019-06-10T08:36:50.104Z,21.20
2019-06-10T08:39:17.155Z,21.30
2019-06-10T08:41:49.067Z,21.30
2019-06-10T08:44:17.158Z,21.40
2019-06-10T08:46:47.248Z,21.40
2019-06-10T08:49:17.087Z,21.50
2019-06-10T08:51:48.859Z,21.50
2019-06-10T08:54:17.289Z,21.60
2019-06-10T08:56:50.308Z,21.60
2019-06-10T08:59:17.324Z,21.70
2019-06-10T09:01:51.547Z,21.70
2019-06-10T09:04:17.515Z,21.80
2019-06-10T09:06:53.842Z,21.80
2019-06-10T09:09:23.232Z,21.90
2019-06-10T09:12:28.349Z,22.00
2019-06-10T09:14:44.017Z,22.00
2019-06-10T09:17:12.503Z,22.00
2019-06-10T09:19:44.222Z,22.10
2019-06-10T09:22:12.618Z,22.20
2019-06-10T09:24:45.570Z,22.30
2019-06-10T09:27:13.531Z,22.30
2019-06-10T09:29:45.707Z,22.40
2019-06-10T09:32:12.504Z,22.40
2019-06-10T09:34:47.140Z,22.50
2019-06-10T09:37:13.105Z,22.50
2019-06-10T09:39:50.470Z,22.60
2019-06-10T09:42:14.479Z,22.70
2019-06-10T09:44:46.916Z,22.70
2019-06-10T09:47:16.224Z,22.80
2019-06-10T09:49:47.545Z,22.80
2019-06-10T09:52:16.467Z,22.90
2019-06-10T09:54:49.832Z,22.90
2019-06-10T09:57:16.984Z,23.00
2019-06-10T09:59:49.778Z,23.00
2019-06-10T10:02:17.427Z,23.00
2019-06-10T10:04:52.238Z,23.10
2019-06-10T10:07:18.357Z,23.10
2019-06-10T10:09:57.066Z,23.10
2019-06-10T10:12:26.478Z,23.20
2019-06-10T10:14:57.579Z,23.20
2019-06-10T10:17:27.026Z,23.20
2019-06-10T10:19:57.129Z,23.30
2019-06-10T10:22:26.520Z,23.30
2019-06-10T10:24:57.021Z,23.40
2019-06-10T10:27:26.344Z,23.40
2019-06-10T10:29:57.338Z,23.40
2019-06-10T10:32:27.043Z,23.40
2019-06-10T10:34:56.601Z,23.50
2019-06-10T10:37:26.131Z,23.50
2019-06-10T10:39:56.549Z,23.50
2019-06-10T10:42:39.144Z,23.50
2019-06-10T10:44:59.181Z,23.60
2019-06-10T10:47:28.356Z,23.60
2019-06-10T10:49:57.893Z,23.70
2019-06-10T10:52:27.394Z,23.70
2019-06-10T10:54:56.926Z,23.70
2019-06-10T10:57:26.394Z,23.70
2019-06-10T10:59:56.237Z,23.80
2019-06-10T11:02:27.317Z,23.80
2019-06-10T11:04:57.203Z,23.80
2019-06-10T11:07:26.738Z,23.90
2019-06-10T11:09:56.863Z,23.90
2019-06-10T11:12:27.311Z,23.90
2019-06-10T11:15:01.446Z,24.00
2019-06-10T11:17:33.463Z,24.00
2019-06-10T11:20:03.802Z,24.00
2019-06-10T11:22:39.489Z,24.10
2019-06-10T11:25:19.413Z,24.10
2019-06-10T11:27:50.023Z,24.20
2019-06-10T11:30:20.297Z,24.20
2019-06-10T11:32:50.707Z,24.20
2019-06-10T11:35:20.605Z,24.20
2019-06-10T11:37:51.730Z,24.30
2019-06-10T11:40:26.547Z,24.30
2019-06-10T11:42:59.478Z,24.30
2019-06-10T11:45:27.049Z,24.40
2019-06-10T11:47:58.211Z,24.40
2019-06-10T11:50:27.979Z,24.40
2019-06-10T11:53:01.382Z,24.50
2019-06-10T11:55:30.029Z,24.50
2019-06-10T11:57:59.394Z,24.50
2019-06-10T12:00:28.966Z,24.60
2019-06-10T12:02:58.990Z,24.60
2019-06-10T12:05:32.709Z,24.60
2019-06-10T12:08:02.870Z,24.60
2019-06-10T12:10:33.069Z,24.60
2019-06-10T12:13:07.115Z,24.70
2019-06-10T12:16:12.660Z,24.70
2019-06-10T12:18:08.358Z,24.70
2019-06-10T12:20:38.092Z,24.80
2019-06-10T12:23:07.371Z,24.80
2019-06-10T12:25:39.567Z,24.80
2019-06-10T12:28:08.052Z,24.90
2019-06-10T12:30:37.363Z,24.90
2019-06-10T12:33:06.556Z,24.90
2019-06-10T12:35:35.726Z,24.90
2019-06-10T12:38:06.256Z,24.90
2019-06-10T12:40:35.574Z,25.00
2019-06-10T12:43:07.006Z,25.00
2019-06-10T12:45:35.849Z,25.00
2019-06-10T12:48:06.937Z,25.10
2019-06-10T12:50:36.067Z,25.10
2019-06-10T12:53:08.762Z,25.10
2019-06-10T12:55:43.550Z,25.10
2019-06-10T12:58:08.936Z,25.10
2019-06-10T13:00:46.215Z,25.10
2019-06-10T13:03:15.925Z,25.20
2019-06-10T13:05:44.350Z,25.20
2019-06-10T13:08:15.454Z,25.20
2019-06-10T13:10:46.035Z,25.30
2019-06-10T13:13:15.142Z,25.30
2019-06-10T13:15:44.507Z,25.30
2019-06-10T13:18:19.179Z,25.40
2019-06-10T13:20:45.327Z,25.40
2019-06-10T13:23:23.641Z,25.50
2019-06-10T13:25:54.352Z,25.50
2019-06-10T13:28:16.382Z,25.50
2019-06-10T13:30:45.560Z,25.60
2019-06-10T13:33:14.933Z,25.70
2019-06-10T13:35:44.479Z,25.70
2019-06-10T13:38:12.752Z,25.80
2019-06-10T13:40:42.952Z,25.80
2019-06-10T13:43:13.241Z,25.80
2019-06-10T13:45:43.049Z,25.90
2019-06-10T13:48:14.830Z,25.90
2019-06-10T13:50:43.190Z,25.90
2019-06-10T13:53:13.539Z,25.90
2019-06-10T13:55:43.714Z,26.00
2019-06-10T13:58:14.675Z,26.00
2019-06-10T14:00:46.717Z,26.00
2019-06-10T14:03:16.226Z,26.10
2019-06-10T14:05:45.895Z,26.10
2019-06-10T14:08:15.522Z,26.20
2019-06-10T14:10:44.012Z,26.30
2019-06-10T14:13:15.398Z,26.30
2019-06-10T14:15:44.852Z,26.30
2019-06-10T14:18:15.324Z,26.40
2019-06-10T14:20:45.304Z,26.40
2019-06-10T14:23:17.516Z,26.50
2019-06-10T14:25:45.647Z,26.60
2019-06-10T14:28:34.936Z,26.60
2019-06-10T14:30:46.340Z,26.70
2019-06-10T14:33:16.715Z,26.80
2019-06-10T14:35:48.491Z,26.80
2019-06-10T14:38:17.965Z,26.90
2019-06-10T14:40:47.682Z,26.90
2019-06-10T14:43:16.410Z,27.00
2019-06-10T14:45:45.743Z,27.00
2019-06-10T14:48:17.227Z,27.00
2019-06-10T14:50:45.966Z,27.10
2019-06-10T14:53:16.897Z,27.10
2019-06-10T14:55:46.265Z,27.10
2019-06-10T14:58:18.686Z,27.10
2019-06-10T15:00:46.608Z,27.20
2019-06-10T15:03:19.651Z,27.20
2019-06-10T15:05:46.795Z,27.20
2019-06-10T15:08:17.339Z,27.20
2019-06-10T15:10:46.722Z,27.20
2019-06-10T15:13:16.151Z,27.20
2019-06-10T15:15:48.544Z,27.30
2019-06-10T15:18:18.275Z,27.30
2019-06-10T15:20:48.014Z,27.30
2019-06-10T15:23:19.076Z,27.40
2019-06-10T15:25:52.878Z,27.40
2019-06-10T15:28:20.415Z,27.40
2019-06-10T15:30:52.249Z,27.50
2019-06-10T15:33:23.573Z,27.50
2019-06-10T15:35:53.678Z,27.50
2019-06-10T15:38:23.515Z,27.60
2019-06-10T15:40:53.466Z,27.70
2019-06-10T15:43:23.708Z,27.80
2019-06-10T15:45:53.207Z,27.80
2019-06-10T15:48:25.256Z,27.80
2019-06-10T15:50:54.964Z,27.80
2019-06-10T15:53:25.700Z,28.00
2019-06-10T15:56:13.165Z,28.00
2019-06-10T15:58:28.675Z,28.10
2019-06-10T16:00:58.019Z,28.10
2019-06-10T16:03:27.330Z,28.20
2019-06-10T16:05:56.555Z,28.20
2019-06-10T16:08:25.803Z,28.30
2019-06-10T16:10:55.017Z,28.30
2019-06-10T16:13:25.906Z,28.40
2019-06-10T16:15:55.363Z,28.40
2019-06-10T16:18:27.603Z,28.40
2019-06-10T16:20:56.241Z,28.50
2019-06-10T16:23:26.764Z,28.50
2019-06-10T16:25:56.251Z,28.50
2019-06-10T16:28:27.802Z,28.60
2019-06-10T16:30:57.055Z,28.60
2019-06-10T16:33:27.825Z,28.60
2019-06-10T16:35:57.419Z,28.60
2019-06-10T16:38:27.299Z,28.60
2019-06-10T16:40:56.620Z,28.70
2019-06-10T16:43:27.249Z,28.70
2019-06-10T16:45:56.828Z,28.70
2019-06-10T16:48:26.112Z,28.70
2019-06-10T16:50:55.412Z,28.70
2019-06-10T16:53:29.886Z,28.70
2019-06-10T16:55:55.723Z,28.70
2019-06-10T16:58:27.133Z,28.70
2019-06-10T17:00:55.019Z,28.70
2019-06-10T17:03:27.147Z,28.70
2019-06-10T17:05:56.349Z,28.70
2019-06-10T17:08:28.112Z,28.70
2019-06-10T17:10:57.168Z,28.70
2019-06-10T17:13:28.973Z,28.70
2019-06-10T17:15:59.168Z,28.60
2019-06-10T17:18:29.980Z,28.60
2019-06-10T17:21:02.923Z,28.50
2019-06-10T17:23:36.324Z,28.50
2019-06-10T17:26:02.563Z,28.40
2019-06-10T17:28:36.358Z,28.30
2019-06-10T17:31:03.861Z,28.10
2019-06-10T17:33:35.683Z,28.00
2019-06-10T17:36:04.718Z,27.90
2019-06-10T17:38:33.875Z,27.90
2019-06-10T17:41:03.381Z,27.80
2019-06-10T17:43:34.311Z,27.80
2019-06-10T17:46:04.704Z,27.70
2019-06-10T17:48:34.035Z,27.70
2019-06-10T17:51:03.521Z,27.60
2019-06-10T17:53:34.897Z,27.60
2019-06-10T17:56:03.774Z,27.50
2019-06-10T17:58:48.776Z,27.50
2019-06-10T18:01:05.429Z,27.50
2019-06-10T18:03:35.826Z,27.50
2019-06-10T18:06:05.569Z,27.40
2019-06-10T18:08:36.407Z,27.40
2019-06-10T18:11:05.846Z,27.40
2019-06-10T18:13:36.513Z,27.30
2019-06-10T18:16:05.957Z,27.30
2019-06-10T18:18:37.141Z,27.20
2019-06-10T18:21:06.669Z,27.20
2019-06-10T18:23:36.654Z,27.10
2019-06-10T18:26:12.376Z,27.10
2019-06-10T18:28:57.861Z,27.10
2019-06-10T18:31:12.983Z,27.00
2019-06-10T18:33:42.553Z,27.00
2019-06-10T18:36:12.266Z,26.90
2019-06-10T18:38:43.541Z,26.90
2019-06-10T18:41:13.095Z,26.80
2019-06-10T18:43:42.556Z,26.80
2019-06-10T18:46:12.784Z,26.80
2019-06-10T18:48:43.139Z,26.70
2019-06-10T18:51:12.725Z,26.70
2019-06-10T18:53:42.697Z,26.60
2019-06-10T18:56:12.912Z,26.60
2019-06-10T18:58:42.721Z,26.60
2019-06-10T19:01:12.444Z,26.60
2019-06-10T19:03:42.919Z,26.50
2019-06-10T19:06:12.798Z,26.40
2019-06-10T19:08:43.982Z,26.30
2019-06-10T19:11:12.153Z,26.30
2019-06-10T19:13:43.535Z,26.20
2019-06-10T19:16:13.186Z,26.20
2019-06-10T19:18:43.280Z,26.10
2019-06-10T19:21:13.236Z,26.00
2019-06-10T19:23:43.880Z,25.90
2019-06-10T19:26:13.726Z,25.90
2019-06-10T19:28:45.122Z,25.90
2019-06-10T19:31:14.308Z,25.90
2019-06-10T19:33:45.195Z,25.80
2019-06-10T19:36:15.076Z,25.70
2019-06-10T19:38:44.506Z,25.70
2019-06-10T19:41:14.059Z,25.70
2019-06-10T19:43:45.302Z,25.60
2019-06-10T19:46:14.395Z,25.50
2019-06-10T19:48:55.520Z,25.50
2019-06-10T19:51:14.794Z,25.50
2019-06-10T19:53:45.161Z,25.50
2019-06-10T19:56:14.698Z,25.40
2019-06-10T19:58:46.280Z,25.40
2019-06-10T20:01:15.305Z,25.40
2019-06-10T20:03:46.460Z,25.30
2019-06-10T20:06:15.708Z,25.30
2019-06-10T20:08:46.231Z,25.30
2019-06-10T20:11:15.519Z,25.20
2019-06-10T20:13:46.577Z,25.20
2019-06-10T20:16:15.707Z,25.20
2019-06-10T20:18:47.610Z,25.20
2019-06-10T20:21:16.040Z,25.10
2019-06-10T20:23:45.891Z,25.10
2019-06-10T20:26:15.502Z,25.10
2019-06-10T20:28:46.716Z,25.10
2019-06-10T20:31:15.675Z,25.00
2019-06-10T20:33:44.853Z,25.00
2019-06-10T20:36:21.946Z,25.00
2019-06-10T20:38:47.263Z,25.00
2019-06-10T20:41:15.723Z,24.90
2019-06-10T20:43:47.168Z,24.90
2019-06-10T20:46:15.855Z,24.80
2019-06-10T20:48:47.141Z,24.80
2019-06-10T20:51:15.916Z,24.70
2019-06-10T20:53:46.346Z,24.70
2019-06-10T20:56:16.163Z,24.70
2019-06-10T20:58:46.481Z,24.60
2019-06-10T21:01:16.300Z,24.60
2019-06-10T21:03:47.580Z,24.60
2019-06-10T21:06:18.954Z,24.50
2019-06-10T21:08:51.168Z,24.50
2019-06-10T21:11:20.243Z,24.50
2019-06-10T21:13:52.105Z,24.50
2019-06-10T21:16:22.825Z,24.40
2019-06-10T21:18:55.579Z,24.40
2019-06-10T21:21:22.791Z,24.40
2019-06-10T21:23:55.183Z,24.40
2019-06-10T21:26:24.572Z,24.30
2019-06-10T21:28:54.981Z,24.30
2019-06-10T21:31:24.681Z,24.30
2019-06-10T21:33:55.822Z,24.30
2019-06-10T21:36:24.792Z,24.30
2019-06-10T21:38:55.707Z,24.20
2019-06-10T21:41:25.264Z,24.20
2019-06-10T21:43:59.155Z,24.20
2019-06-10T21:46:25.342Z,24.10
2019-06-10T21:48:55.849Z,24.10
2019-06-10T21:51:25.845Z,24.10
2019-06-10T21:53:55.227Z,24.10
2019-06-10T21:56:24.858Z,24.10
2019-06-10T21:58:55.572Z,24.00
2019-06-10T22:01:25.351Z,23.90
2019-06-10T22:04:00.548Z,23.80
2019-06-10T22:06:25.383Z,23.80
2019-06-10T22:08:56.488Z,23.80
2019-06-10T22:11:25.622Z,23.80
2019-06-10T22:13:56.237Z,23.70
2019-06-10T22:16:25.722Z,23.70
2019-06-10T22:18:55.056Z,23.70
2019-06-10T22:21:24.429Z,23.60
2019-06-10T22:23:55.317Z,23.60
2019-06-10T22:26:24.425Z,23.70
2019-06-10T22:28:55.795Z,23.60
2019-06-10T22:31:26.340Z,23.60
2019-06-10T22:33:57.440Z,23.60
2019-06-10T22:36:26.333Z,23.60
2019-06-10T22:38:58.656Z,23.60
2019-06-10T22:41:26.454Z,23.60
2019-06-10T22:43:59.821Z,23.50
2019-06-10T22:46:29.117Z,23.50
2019-06-10T22:48:59.480Z,23.50
2019-06-10T22:51:28.767Z,23.50
2019-06-10T22:54:17.036Z,23.50
2019-06-10T22:56:47.331Z,23.50
2019-06-10T22:59:16.430Z,23.50
2019-06-10T23:01:45.784Z,23.50
2019-06-10T23:04:14.971Z,23.50
2019-06-10T23:06:44.077Z,23.50
2019-06-10T23:09:13.418Z,23.40
2019-06-10T23:11:42.758Z,23.40
2019-06-10T23:14:12.423Z,23.40
2019-06-10T23:16:42.717Z,23.40
2019-06-10T23:19:13.053Z,23.30
2019-06-10T23:21:42.505Z,23.30
2019-06-10T23:24:13.423Z,23.30
2019-06-10T23:26:42.627Z,23.40
2019-06-10T23:29:12.270Z,23.30
2019-06-10T23:31:51.714Z,23.30
2019-06-10T23:34:17.655Z,23.30
2019-06-10T23:36:43.857Z,23.30
2019-06-10T23:39:13.236Z,23.30
2019-06-10T23:41:43.357Z,23.30
2019-06-10T23:44:12.867Z,23.30
2019-06-10T23:46:43.307Z,23.20
2019-06-10T23:49:12.552Z,23.30
2019-06-10T23:51:42.346Z,23.20
2019-06-10T23:54:12.505Z,23.20
2019-06-10T23:56:42.698Z,23.20
2019-06-10T23:59:12.065Z,23.20
